sensor_id;sensor_type;location;lat;lon;timestamp;pressure;altitude;pressure_sealevel;temperature;humidity
46464;BME280;32161;48.148;-1.554;2023-04-27T00:00:35;100963.16;;;11.94;94.71
46464;BME280;32161;48.148;-1.554;2023-04-27T00:03:03;100954.88;;;11.89;94.97
46464;BME280;32161;48.148;-1.554;2023-04-27T00:05:34;100954.25;;;11.87;95.20
46464;BME280;32161;48.148;-1.554;2023-04-27T00:08:02;100957.81;;;11.87;94.71
46464;BME280;32161;48.148;-1.554;2023-04-27T00:10:29;100957.44;;;11.84;94.81
46464;BME280;32161;48.148;-1.554;2023-04-27T00:12:57;100948.66;;;11.82;94.59
46464;BME280;32161;48.148;-1.554;2023-04-27T00:15:25;100951.84;;;11.79;94.85
46464;BME280;32161;48.148;-1.554;2023-04-27T00:17:54;100949.59;;;11.76;94.14
46464;BME280;32161;48.148;-1.554;2023-04-27T00:20:22;100946.75;;;11.70;93.61
46464;BME280;32161;48.148;-1.554;2023-04-27T00:22:50;100947.81;;;11.69;91.80
46464;BME280;32161;48.148;-1.554;2023-04-27T00:25:17;100953.00;;;11.71;91.26
46464;BME280;32161;48.148;-1.554;2023-04-27T00:27:45;100952.44;;;11.69;91.08
46464;BME280;32161;48.148;-1.554;2023-04-27T00:30:13;100960.09;;;11.72;91.93
46464;BME280;32161;48.148;-1.554;2023-04-27T00:32:41;100956.19;;;11.68;93.17
46464;BME280;32161;48.148;-1.554;2023-04-27T00:35:10;100956.91;;;11.63;94.16
46464;BME280;32161;48.148;-1.554;2023-04-27T00:37:38;100957.97;;;11.62;94.91
46464;BME280;32161;48.148;-1.554;2023-04-27T00:40:07;100950.72;;;11.56;95.26
46464;BME280;32161;48.148;-1.554;2023-04-27T00:42:35;100954.97;;;11.52;95.18
46464;BME280;32161;48.148;-1.554;2023-04-27T00:45:03;100957.47;;;11.54;94.38
46464;BME280;32161;48.148;-1.554;2023-04-27T00:47:32;100957.47;;;11.54;92.06
46464;BME280;32161;48.148;-1.554;2023-04-27T00:50:01;100964.56;;;11.55;90.48
46464;BME280;32161;48.148;-1.554;2023-04-27T00:52:30;100961.22;;;11.53;89.21
46464;BME280;32161;48.148;-1.554;2023-04-27T00:54:58;100953.31;;;11.51;89.56
46464;BME280;32161;48.148;-1.554;2023-04-27T00:57:29;100960.03;;;11.48;89.94
46464;BME280;32161;48.148;-1.554;2023-04-27T00:59:58;100950.47;;;11.46;88.21
46464;BME280;32161;48.148;-1.554;2023-04-27T01:02:26;100945.69;;;11.41;88.24
46464;BME280;32161;48.148;-1.554;2023-04-27T01:04:54;100944.03;;;11.40;89.09
46464;BME280;32161;48.148;-1.554;2023-04-27T01:07:24;100947.91;;;11.33;89.53
46464;BME280;32161;48.148;-1.554;2023-04-27T01:09:54;100947.97;;;11.26;88.83
46464;BME280;32161;48.148;-1.554;2023-04-27T01:12:21;100952.00;;;11.23;88.80
46464;BME280;32161;48.148;-1.554;2023-04-27T01:14:49;100946.19;;;11.20;89.89
46464;BME280;32161;48.148;-1.554;2023-04-27T01:17:16;100948.78;;;11.15;90.11
46464;BME280;32161;48.148;-1.554;2023-04-27T01:19:44;100939.19;;;11.12;89.94
46464;BME280;32161;48.148;-1.554;2023-04-27T01:22:12;100939.19;;;11.12;90.21
46464;BME280;32161;48.148;-1.554;2023-04-27T01:24:41;100934.13;;;11.16;89.92
46464;BME280;32161;48.148;-1.554;2023-04-27T01:27:09;100925.22;;;11.09;90.23
46464;BME280;32161;48.148;-1.554;2023-04-27T01:29:37;100932.03;;;10.99;90.19
46464;BME280;32161;48.148;-1.554;2023-04-27T01:32:05;100929.75;;;10.96;90.55
46464;BME280;32161;48.148;-1.554;2023-04-27T01:34:33;100924.78;;;10.93;90.96
46464;BME280;32161;48.148;-1.554;2023-04-27T01:37:00;100927.94;;;10.90;91.95
46464;BME280;32161;48.148;-1.554;2023-04-27T01:39:28;100919.66;;;10.85;92.64
46464;BME280;32161;48.148;-1.554;2023-04-27T01:41:57;100922.00;;;10.82;93.47
46464;BME280;32161;48.148;-1.554;2023-04-27T01:44:24;100909.09;;;10.77;93.36
46464;BME280;32161;48.148;-1.554;2023-04-27T01:46:52;100908.25;;;10.77;92.19
46464;BME280;32161;48.148;-1.554;2023-04-27T01:49:20;100909.28;;;10.75;91.08
46464;BME280;32161;48.148;-1.554;2023-04-27T01:51:47;100911.19;;;10.75;90.49
46464;BME280;32161;48.148;-1.554;2023-04-27T01:54:15;100905.75;;;10.75;90.55
46464;BME280;32161;48.148;-1.554;2023-04-27T01:56:42;100912.84;;;10.76;90.26
46464;BME280;32161;48.148;-1.554;2023-04-27T01:59:11;100913.31;;;10.73;90.17
46464;BME280;32161;48.148;-1.554;2023-04-27T02:01:39;100920.03;;;10.70;89.97
46464;BME280;32161;48.148;-1.554;2023-04-27T02:04:06;100909.53;;;10.74;89.58
46464;BME280;32161;48.148;-1.554;2023-04-27T02:06:34;100913.75;;;10.70;90.03
46464;BME280;32161;48.148;-1.554;2023-04-27T02:09:02;100910.66;;;10.66;90.15
46464;BME280;32161;48.148;-1.554;2023-04-27T02:11:29;100911.34;;;10.62;90.76
46464;BME280;32161;48.148;-1.554;2023-04-27T02:13:57;100909.31;;;10.57;91.51
46464;BME280;32161;48.148;-1.554;2023-04-27T02:16:26;100908.69;;;10.55;92.31
46464;BME280;32161;48.148;-1.554;2023-04-27T02:18:53;100917.09;;;10.54;93.33
46464;BME280;32161;48.148;-1.554;2023-04-27T02:21:21;100901.59;;;10.54;93.90
46464;BME280;32161;48.148;-1.554;2023-04-27T02:23:48;100896.75;;;10.56;94.53
46464;BME280;32161;48.148;-1.554;2023-04-27T02:26:16;100898.22;;;10.59;95.30
46464;BME280;32161;48.148;-1.554;2023-04-27T02:28:45;100892.91;;;10.64;95.69
46464;BME280;32161;48.148;-1.554;2023-04-27T02:31:14;100893.16;;;10.62;95.59
46464;BME280;32161;48.148;-1.554;2023-04-27T02:33:43;100901.31;;;10.62;95.49
46464;BME280;32161;48.148;-1.554;2023-04-27T02:36:10;100888.97;;;10.60;95.96
46464;BME280;32161;48.148;-1.554;2023-04-27T02:38:38;100887.34;;;10.59;96.57
46464;BME280;32161;48.148;-1.554;2023-04-27T02:41:05;100890.63;;;10.61;96.94
46464;BME280;32161;48.148;-1.554;2023-04-27T02:43:33;100879.75;;;10.61;97.32
46464;BME280;32161;48.148;-1.554;2023-04-27T02:46:02;100887.09;;;10.60;97.80
46464;BME280;32161;48.148;-1.554;2023-04-27T02:48:30;100893.34;;;10.61;98.25
46464;BME280;32161;48.148;-1.554;2023-04-27T02:51:02;100887.72;;;10.62;98.17
46464;BME280;32161;48.148;-1.554;2023-04-27T02:53:30;100892.09;;;10.63;98.54
46464;BME280;32161;48.148;-1.554;2023-04-27T02:55:57;100892.69;;;10.65;99.05
46464;BME280;32161;48.148;-1.554;2023-04-27T02:58:25;100896.25;;;10.66;99.52
46464;BME280;32161;48.148;-1.554;2023-04-27T03:00:56;100896.84;;;10.68;99.99
46464;BME280;32161;48.148;-1.554;2023-04-27T03:03:23;100901.00;;;10.70;100.00
46464;BME280;32161;48.148;-1.554;2023-04-27T03:05:51;100904.09;;;10.74;100.00
46464;BME280;32161;48.148;-1.554;2023-04-27T03:08:20;100911.19;;;10.75;100.00
46464;BME280;32161;48.148;-1.554;2023-04-27T03:10:47;100915.56;;;10.76;100.00
46464;BME280;32161;48.148;-1.554;2023-04-27T03:13:15;100913.69;;;10.77;100.00
46464;BME280;32161;48.148;-1.554;2023-04-27T03:15:43;100927.88;;;10.79;100.00
46464;BME280;32161;48.148;-1.554;2023-04-27T03:18:10;100924.09;;;10.80;100.00
46464;BME280;32161;48.148;-1.554;2023-04-27T03:20:38;100917.38;;;10.82;100.00
46464;BME280;32161;48.148;-1.554;2023-04-27T03:23:06;100914.66;;;10.82;100.00
46464;BME280;32161;48.148;-1.554;2023-04-27T03:25:35;100913.44;;;10.78;100.00
46464;BME280;32161;48.148;-1.554;2023-04-27T03:28:03;100909.09;;;10.77;100.00
46464;BME280;32161;48.148;-1.554;2023-04-27T03:30:30;100905.97;;;10.73;100.00
46464;BME280;32161;48.148;-1.554;2023-04-27T03:32:58;100909.09;;;10.77;100.00
46464;BME280;32161;48.148;-1.554;2023-04-27T03:35:25;100906.13;;;10.79;100.00
46464;BME280;32161;48.148;-1.554;2023-04-27T03:37:53;100902.34;;;10.80;100.00
46464;BME280;32161;48.148;-1.554;2023-04-27T03:40:21;100896.06;;;10.79;100.00
46464;BME280;32161;48.148;-1.554;2023-04-27T03:42:50;100899.41;;;10.81;100.00
46464;BME280;32161;48.148;-1.554;2023-04-27T03:45:17;100898.34;;;10.82;100.00
46464;BME280;32161;48.148;-1.554;2023-04-27T03:47:47;100889.13;;;10.83;100.00
46464;BME280;32161;48.148;-1.554;2023-04-27T03:50:15;100893.53;;;10.84;100.00
46464;BME280;32161;48.148;-1.554;2023-04-27T03:52:42;100892.44;;;10.85;100.00
46464;BME280;32161;48.148;-1.554;2023-04-27T03:55:10;100886.19;;;10.85;100.00
46464;BME280;32161;48.148;-1.554;2023-04-27T03:57:38;100884.28;;;10.85;100.00
46464;BME280;32161;48.148;-1.554;2023-04-27T04:00:09;100885.25;;;10.91;100.00
46464;BME280;32161;48.148;-1.554;2023-04-27T04:02:37;100884.06;;;10.87;100.00
46464;BME280;32161;48.148;-1.554;2023-04-27T04:05:05;100878.25;;;10.83;100.00
46464;BME280;32161;48.148;-1.554;2023-04-27T04:07:33;100880.38;;;10.81;100.00
46464;BME280;32161;48.148;-1.554;2023-04-27T04:10:01;100870.19;;;10.77;100.00
46464;BME280;32161;48.148;-1.554;2023-04-27T04:12:29;100865.56;;;10.77;100.00
46464;BME280;32161;48.148;-1.554;2023-04-27T04:14:56;100861.78;;;10.78;100.00
46464;BME280;32161;48.148;-1.554;2023-04-27T04:17:26;100868.28;;;10.77;100.00
46464;BME280;32161;48.148;-1.554;2023-04-27T04:19:53;100859.91;;;10.79;100.00
46464;BME280;32161;48.148;-1.554;2023-04-27T04:22:21;100842.75;;;10.78;100.00
46464;BME280;32161;48.148;-1.554;2023-04-27T04:24:48;100847.25;;;10.72;100.00
46464;BME280;32161;48.148;-1.554;2023-04-27T04:27:16;100841.81;;;10.72;100.00
46464;BME280;32161;48.148;-1.554;2023-04-27T04:29:44;100838.91;;;10.67;100.00
46464;BME280;32161;48.148;-1.554;2023-04-27T04:32:11;100838.34;;;10.65;100.00
46464;BME280;32161;48.148;-1.554;2023-04-27T04:34:47;100837.50;;;10.65;100.00
46464;BME280;32161;48.148;-1.554;2023-04-27T04:37:16;100833.56;;;10.61;100.00
46464;BME280;32161;48.148;-1.554;2023-04-27T04:39:44;100825.41;;;10.61;100.00
46464;BME280;32161;48.148;-1.554;2023-04-27T04:42:12;100825.41;;;10.61;100.00
46464;BME280;32161;48.148;-1.554;2023-04-27T04:44:39;100817.25;;;10.61;100.00
46464;BME280;32161;48.148;-1.554;2023-04-27T04:47:07;100814.53;;;10.61;100.00
46464;BME280;32161;48.148;-1.554;2023-04-27T04:49:35;100803.19;;;10.64;99.99
46464;BME280;32161;48.148;-1.554;2023-04-27T04:52:04;100808.06;;;10.62;99.72
46464;BME280;32161;48.148;-1.554;2023-04-27T04:54:31;100805.53;;;10.60;100.00
46464;BME280;32161;48.148;-1.554;2023-04-27T04:56:59;100812.66;;;10.61;99.40
46464;BME280;32161;48.148;-1.554;2023-04-27T04:59:32;100803.75;;;10.54;99.72
46464;BME280;32161;48.148;-1.554;2023-04-27T05:01:59;100796.88;;;10.51;100.00
46464;BME280;32161;48.148;-1.554;2023-04-27T05:04:27;100798.53;;;10.52;100.00
46464;BME280;32161;48.148;-1.554;2023-04-27T05:06:54;100803.97;;;10.52;100.00
46464;BME280;32161;48.148;-1.554;2023-04-27T05:09:23;100803.97;;;10.52;100.00
46464;BME280;32161;48.148;-1.554;2023-04-27T05:11:51;100804.59;;;10.55;100.00
46464;BME280;32161;48.148;-1.554;2023-04-27T05:14:18;100810.72;;;10.50;100.00
46464;BME280;32161;48.148;-1.554;2023-04-27T05:16:46;100824.06;;;10.51;100.00
46464;BME280;32161;48.148;-1.554;2023-04-27T05:19:16;100816.91;;;10.57;100.00
46464;BME280;32161;48.148;-1.554;2023-04-27T05:21:46;100819.44;;;10.52;100.00
46464;BME280;32161;48.148;-1.554;2023-04-27T05:24:13;100816.91;;;10.57;100.00
46464;BME280;32161;48.148;-1.554;2023-04-27T05:26:43;100825.72;;;10.52;100.00
46464;BME280;32161;48.148;-1.554;2023-04-27T05:29:10;100820.06;;;10.54;100.00
46464;BME280;32161;48.148;-1.554;2023-04-27T05:31:38;100820.28;;;10.52;100.00
46464;BME280;32161;48.148;-1.554;2023-04-27T05:34:06;100821.09;;;10.53;100.00
46464;BME280;32161;48.148;-1.554;2023-04-27T05:36:35;100828.59;;;10.58;100.00
46464;BME280;32161;48.148;-1.554;2023-04-27T05:39:03;100829.19;;;10.60;100.00
46464;BME280;32161;48.148;-1.554;2023-04-27T05:41:31;100836.88;;;10.63;100.00
46464;BME280;32161;48.148;-1.554;2023-04-27T05:44:00;100841.63;;;10.67;100.00
46464;BME280;32161;48.148;-1.554;2023-04-27T05:46:27;100837.34;;;10.60;100.00
46464;BME280;32161;48.148;-1.554;2023-04-27T05:48:55;100835.25;;;10.62;100.00
46464;BME280;32161;48.148;-1.554;2023-04-27T05:51:23;100833.34;;;10.62;100.00
46464;BME280;32161;48.148;-1.554;2023-04-27T05:53:51;100840.50;;;10.75;100.00
46464;BME280;32161;48.148;-1.554;2023-04-27T05:56:20;100839.22;;;10.78;100.00
46464;BME280;32161;48.148;-1.554;2023-04-27T05:58:48;100845.47;;;10.78;100.00
46464;BME280;32161;48.148;-1.554;2023-04-27T06:01:17;100848.19;;;10.78;100.00
46464;BME280;32161;48.148;-1.554;2023-04-27T06:03:44;100841.31;;;10.75;100.00
46464;BME280;32161;48.148;-1.554;2023-04-27T06:06:12;100852.56;;;10.79;100.00
46464;BME280;32161;48.148;-1.554;2023-04-27T06:08:39;100855.91;;;10.81;100.00
46464;BME280;32161;48.148;-1.554;2023-04-27T06:11:07;100861.34;;;10.81;100.00
46464;BME280;32161;48.148;-1.554;2023-04-27T06:13:34;100856.13;;;10.80;100.00
46464;BME280;32161;48.148;-1.554;2023-04-27T06:16:02;100864.66;;;10.83;100.00
46464;BME280;32161;48.148;-1.554;2023-04-27T06:18:31;100859.59;;;10.87;100.00
46464;BME280;32161;48.148;-1.554;2023-04-27T06:20:59;100867.03;;;10.91;100.00
46464;BME280;32161;48.148;-1.554;2023-04-27T06:23:27;100861.53;;;10.98;100.00
46464;BME280;32161;48.148;-1.554;2023-04-27T06:25:55;100862.28;;;11.05;100.00
46464;BME280;32161;48.148;-1.554;2023-04-27T06:28:23;100870.47;;;11.17;100.00
46464;BME280;32161;48.148;-1.554;2023-04-27T06:30:52;100870.94;;;11.14;100.00
46464;BME280;32161;48.148;-1.554;2023-04-27T06:33:20;100863.75;;;11.19;100.00
46464;BME280;32161;48.148;-1.554;2023-04-27T06:35:49;100848.63;;;11.23;100.00
46464;BME280;32161;48.148;-1.554;2023-04-27T06:38:17;100850.03;;;11.26;100.00
46464;BME280;32161;48.148;-1.554;2023-04-27T06:40:49;100861.56;;;11.40;100.00
46464;BME280;32161;48.148;-1.554;2023-04-27T06:43:17;100856.47;;;11.43;100.00
46464;BME280;32161;48.148;-1.554;2023-04-27T06:45:45;100867.38;;;11.43;100.00
46464;BME280;32161;48.148;-1.554;2023-04-27T06:48:12;100869.63;;;11.46;100.00
46464;BME280;32161;48.148;-1.554;2023-04-27T06:50:40;100877.00;;;11.58;100.00
46464;BME280;32161;48.148;-1.554;2023-04-27T06:53:09;100855.31;;;11.63;100.00
46464;BME280;32161;48.148;-1.554;2023-04-27T06:55:37;100857.25;;;11.74;100.00
46464;BME280;32161;48.148;-1.554;2023-04-27T06:58:05;100857.59;;;11.78;100.00
46464;BME280;32161;48.148;-1.554;2023-04-27T07:00:32;100860.63;;;11.88;100.00
46464;BME280;32161;48.148;-1.554;2023-04-27T07:03:00;100871.50;;;12.00;100.00
46464;BME280;32161;48.148;-1.554;2023-04-27T07:05:27;100877.91;;;12.05;100.00
46464;BME280;32161;48.148;-1.554;2023-04-27T07:07:55;100863.19;;;12.06;100.00
46464;BME280;32161;48.148;-1.554;2023-04-27T07:10:24;100854.19;;;12.17;100.00
46464;BME280;32161;48.148;-1.554;2023-04-27T07:12:53;100857.75;;;12.18;100.00
46464;BME280;32161;48.148;-1.554;2023-04-27T07:15:21;100851.25;;;12.19;100.00
46464;BME280;32161;48.148;-1.554;2023-04-27T07:17:50;100849.69;;;12.23;100.00
46464;BME280;32161;48.148;-1.554;2023-04-27T07:20:19;100841.63;;;12.28;100.00
46464;BME280;32161;48.148;-1.554;2023-04-27T07:22:46;100847.44;;;12.32;100.00
46464;BME280;32161;48.148;-1.554;2023-04-27T07:25:14;100847.75;;;12.47;100.00
46464;BME280;32161;48.148;-1.554;2023-04-27T07:27:43;100842.66;;;12.51;100.00
46464;BME280;32161;48.148;-1.554;2023-04-27T07:30:12;100845.47;;;12.56;100.00
46464;BME280;32161;48.148;-1.554;2023-04-27T07:32:40;100843.00;;;12.54;100.00
46464;BME280;32161;48.148;-1.554;2023-04-27T07:35:09;100837.28;;;12.56;100.00
46464;BME280;32161;48.148;-1.554;2023-04-27T07:37:37;100834.19;;;12.64;100.00
46464;BME280;32161;48.148;-1.554;2023-04-27T07:40:07;100826.69;;;12.71;100.00
46464;BME280;32161;48.148;-1.554;2023-04-27T07:42:43;100818.78;;;12.69;100.00
46464;BME280;32161;48.148;-1.554;2023-04-27T07:45:11;100830.22;;;12.83;100.00
46464;BME280;32161;48.148;-1.554;2023-04-27T07:47:39;100826.44;;;12.84;100.00
46464;BME280;32161;48.148;-1.554;2023-04-27T07:50:09;100844.06;;;12.93;100.00
46464;BME280;32161;48.148;-1.554;2023-04-27T07:52:37;100841.94;;;12.95;100.00
46464;BME280;32161;48.148;-1.554;2023-04-27T07:55:06;100846.16;;;13.03;100.00
46464;BME280;32161;48.148;-1.554;2023-04-27T07:57:35;100851.97;;;13.07;100.00
46464;BME280;32161;48.148;-1.554;2023-04-27T08:00:05;100845.47;;;12.96;100.00
46464;BME280;32161;48.148;-1.554;2023-04-27T08:02:36;100849.84;;;12.97;100.00
46464;BME280;32161;48.148;-1.554;2023-04-27T08:05:04;100847.97;;;12.98;100.00
46464;BME280;32161;48.148;-1.554;2023-04-27T08:07:33;100844.84;;;13.06;100.00
46464;BME280;32161;48.148;-1.554;2023-04-27T08:10:00;100848.03;;;13.03;100.00
46464;BME280;32161;48.148;-1.554;2023-04-27T08:12:28;100846.94;;;13.15;100.00
46464;BME280;32161;48.148;-1.554;2023-04-27T08:14:56;100841.69;;;13.26;100.00
46464;BME280;32161;48.148;-1.554;2023-04-27T08:17:26;100843.94;;;13.17;98.30
46464;BME280;32161;48.148;-1.554;2023-04-27T08:19:53;100833.59;;;13.31;99.44
46464;BME280;32161;48.148;-1.554;2023-04-27T08:22:21;100833.13;;;13.22;99.96
46464;BME280;32161;48.148;-1.554;2023-04-27T08:24:48;100837.75;;;13.22;100.00
46464;BME280;32161;48.148;-1.554;2023-04-27T08:27:16;100831.84;;;13.25;100.00
46464;BME280;32161;48.148;-1.554;2023-04-27T08:29:47;100826.78;;;13.33;100.00
46464;BME280;32161;48.148;-1.554;2023-04-27T08:32:15;100827.66;;;13.51;98.58
46464;BME280;32161;48.148;-1.554;2023-04-27T08:34:44;100825.47;;;13.36;99.93
46464;BME280;32161;48.148;-1.554;2023-04-27T08:37:11;100821.94;;;13.35;100.00
46464;BME280;32161;48.148;-1.554;2023-04-27T08:39:39;100820.78;;;13.48;98.95
46464;BME280;32161;48.148;-1.554;2023-04-27T08:42:10;100823.09;;;13.39;99.24
46464;BME280;32161;48.148;-1.554;2023-04-27T08:44:38;100823.72;;;13.30;100.00
46464;BME280;32161;48.148;-1.554;2023-04-27T08:47:06;100816.66;;;13.46;100.00
46464;BME280;32161;48.148;-1.554;2023-04-27T08:49:34;100815.41;;;13.53;100.00
46464;BME280;32161;48.148;-1.554;2023-04-27T08:52:10;100810.34;;;13.45;100.00
46464;BME280;32161;48.148;-1.554;2023-04-27T08:54:38;100806.28;;;13.48;100.00
46464;BME280;32161;48.148;-1.554;2023-04-27T08:57:10;100807.44;;;13.52;100.00
46464;BME280;32161;48.148;-1.554;2023-04-27T08:59:38;100817.47;;;13.46;100.00
46464;BME280;32161;48.148;-1.554;2023-04-27T09:02:16;100809.84;;;13.31;100.00
46464;BME280;32161;48.148;-1.554;2023-04-27T09:04:44;100808.28;;;13.35;100.00
46464;BME280;32161;48.148;-1.554;2023-04-27T09:07:15;100812.59;;;13.48;100.00
46464;BME280;32161;48.148;-1.554;2023-04-27T09:09:43;100807.13;;;13.65;100.00
46464;BME280;32161;48.148;-1.554;2023-04-27T09:12:15;100803.75;;;13.58;100.00
46464;BME280;32161;48.148;-1.554;2023-04-27T09:14:55;100797.09;;;13.71;100.00
46464;BME280;32161;48.148;-1.554;2023-04-27T09:17:26;100806.03;;;13.83;100.00
46464;BME280;32161;48.148;-1.554;2023-04-27T09:20:04;100798.31;;;13.80;100.00
46464;BME280;32161;48.148;-1.554;2023-04-27T09:22:44;100801.91;;;13.80;100.00
46464;BME280;32161;48.148;-1.554;2023-04-27T09:25:23;100804.38;;;13.82;100.00
46464;BME280;32161;48.148;-1.554;2023-04-27T09:27:50;100810.16;;;13.85;100.00
46464;BME280;32161;48.148;-1.554;2023-04-27T09:30:19;100794.94;;;13.89;100.00
46464;BME280;32161;48.148;-1.554;2023-04-27T09:32:55;100795.81;;;13.95;100.00
46464;BME280;32161;48.148;-1.554;2023-04-27T09:35:25;100792.56;;;14.15;100.00
46464;BME280;32161;48.148;-1.554;2023-04-27T09:37:55;100794.56;;;14.03;100.00
46464;BME280;32161;48.148;-1.554;2023-04-27T09:40:25;100785.41;;;14.14;100.00
46464;BME280;32161;48.148;-1.554;2023-04-27T09:42:56;100785.81;;;14.01;100.00
46464;BME280;32161;48.148;-1.554;2023-04-27T09:45:24;100777.09;;;14.04;100.00
46464;BME280;32161;48.148;-1.554;2023-04-27T09:47:52;100773.78;;;14.02;100.00
46464;BME280;32161;48.148;-1.554;2023-04-27T09:50:20;100779.91;;;14.09;100.00
46464;BME280;32161;48.148;-1.554;2023-04-27T09:52:48;100776.66;;;14.12;100.00
46464;BME280;32161;48.148;-1.554;2023-04-27T09:55:27;100775.06;;;14.16;100.00
46464;BME280;32161;48.148;-1.554;2023-04-27T09:58:24;100768.59;;;14.22;100.00
46464;BME280;32161;48.148;-1.554;2023-04-27T10:01:07;100767.13;;;14.36;100.00
46464;BME280;32161;48.148;-1.554;2023-04-27T10:03:44;100767.13;;;14.36;100.00
46464;BME280;32161;48.148;-1.554;2023-04-27T10:06:58;100774.19;;;14.32;100.00
46464;BME280;32161;48.148;-1.554;2023-04-27T10:09:27;100770.88;;;14.30;100.00
46464;BME280;32161;48.148;-1.554;2023-04-27T10:12:14;100767.25;;;14.25;100.00
46464;BME280;32161;48.148;-1.554;2023-04-27T10:14:52;100775.28;;;14.31;100.00
46464;BME280;32161;48.148;-1.554;2023-04-27T10:17:24;100775.09;;;14.38;100.00
46464;BME280;32161;48.148;-1.554;2023-04-27T10:19:58;100768.25;;;14.40;100.00
46464;BME280;32161;48.148;-1.554;2023-04-27T10:22:38;100771.53;;;14.37;100.00
46464;BME280;32161;48.148;-1.554;2023-04-27T10:25:17;100778.06;;;14.36;100.00
46464;BME280;32161;48.148;-1.554;2023-04-27T10:27:50;100771.91;;;14.46;100.00
46464;BME280;32161;48.148;-1.554;2023-04-27T10:30:20;100768.59;;;14.44;100.00
46464;BME280;32161;48.148;-1.554;2023-04-27T10:32:53;100772.72;;;14.47;100.00
46464;BME280;32161;48.148;-1.554;2023-04-27T10:35:21;100765.88;;;14.66;100.00
46464;BME280;32161;48.148;-1.554;2023-04-27T10:37:49;100761.09;;;14.56;100.00
46464;BME280;32161;48.148;-1.554;2023-04-27T10:40:18;100770.06;;;14.52;100.00
46464;BME280;32161;48.148;-1.554;2023-04-27T10:42:46;100773.44;;;14.59;100.00
46464;BME280;32161;48.148;-1.554;2023-04-27T10:45:26;100764.72;;;14.62;100.00
46464;BME280;32161;48.148;-1.554;2023-04-27T10:47:59;100752.66;;;14.58;100.00
46464;BME280;32161;48.148;-1.554;2023-04-27T10:50:27;100740.63;;;14.59;100.00
46464;BME280;32161;48.148;-1.554;2023-04-27T10:52:59;100737.38;;;14.62;100.00
46464;BME280;32161;48.148;-1.554;2023-04-27T10:55:29;100750.06;;;14.73;100.00
46464;BME280;32161;48.148;-1.554;2023-04-27T10:57:58;100749.03;;;14.79;100.00
46464;BME280;32161;48.148;-1.554;2023-04-27T11:00:30;100752.53;;;14.75;100.00
46464;BME280;32161;48.148;-1.554;2023-04-27T11:03:18;100749.56;;;14.76;100.00
46464;BME280;32161;48.148;-1.554;2023-04-27T11:05:57;100745.63;;;14.67;100.00
46464;BME280;32161;48.148;-1.554;2023-04-27T11:08:25;100733.16;;;14.76;100.00
46464;BME280;32161;48.148;-1.554;2023-04-27T11:10:53;100741.66;;;14.80;100.00
46464;BME280;32161;48.148;-1.554;2023-04-27T11:13:22;100740.97;;;14.95;100.00
46464;BME280;32161;48.148;-1.554;2023-04-27T11:15:54;100736.63;;;14.99;100.00
46464;BME280;32161;48.148;-1.554;2023-04-27T11:18:24;100742.81;;;14.84;100.00
46464;BME280;32161;48.148;-1.554;2023-04-27T11:20:54;100736.34;;;14.95;100.00
46464;BME280;32161;48.148;-1.554;2023-04-27T11:23:32;100722.50;;;15.07;100.00
46464;BME280;32161;48.148;-1.554;2023-04-27T11:26:09;100724.78;;;15.20;100.00
46464;BME280;32161;48.148;-1.554;2023-04-27T11:28:37;100718.13;;;15.11;100.00
46464;BME280;32161;48.148;-1.554;2023-04-27T11:31:07;100723.06;;;15.14;100.00
46464;BME280;32161;48.148;-1.554;2023-04-27T11:33:34;100717.13;;;15.22;100.00
46464;BME280;32161;48.148;-1.554;2023-04-27T11:36:15;100714.78;;;15.04;100.00
46464;BME280;32161;48.148;-1.554;2023-04-27T11:38:43;100715.53;;;15.26;100.00
46464;BME280;32161;48.148;-1.554;2023-04-27T11:41:11;100713.25;;;15.18;100.00
46464;BME280;32161;48.148;-1.554;2023-04-27T11:43:41;100714.47;;;15.32;100.00
46464;BME280;32161;48.148;-1.554;2023-04-27T11:46:12;100715.75;;;15.25;100.00
46464;BME280;32161;48.148;-1.554;2023-04-27T11:48:40;100718.25;;;15.26;100.00
46464;BME280;32161;48.148;-1.554;2023-04-27T11:51:10;100719.75;;;15.07;100.00
46464;BME280;32161;48.148;-1.554;2023-04-27T11:53:39;100718.69;;;15.13;100.00
46464;BME280;32161;48.148;-1.554;2023-04-27T11:56:09;100721.94;;;15.10;100.00
46464;BME280;32161;48.148;-1.554;2023-04-27T11:58:38;100715.03;;;15.02;100.00
46464;BME280;32161;48.148;-1.554;2023-04-27T12:01:07;100710.03;;;15.26;100.00
46464;BME280;32161;48.148;-1.554;2023-04-27T12:03:36;100715.53;;;15.26;100.00
46464;BME280;32161;48.148;-1.554;2023-04-27T12:06:04;100706.22;;;15.27;100.00
46464;BME280;32161;48.148;-1.554;2023-04-27T12:08:32;100704.81;;;15.25;100.00
46464;BME280;32161;48.148;-1.554;2023-04-27T12:10:59;100707.94;;;15.38;100.00
46464;BME280;32161;48.148;-1.554;2023-04-27T12:13:27;100705.25;;;15.49;100.00
46464;BME280;32161;48.148;-1.554;2023-04-27T12:15:55;100700.53;;;15.34;100.00
46464;BME280;32161;48.148;-1.554;2023-04-27T12:18:22;100705.69;;;15.30;100.00
46464;BME280;32161;48.148;-1.554;2023-04-27T12:20:51;100701.06;;;15.36;100.00
46464;BME280;32161;48.148;-1.554;2023-04-27T12:23:19;100694.78;;;15.41;100.00
46464;BME280;32161;48.148;-1.554;2023-04-27T12:25:47;100695.38;;;15.43;100.00
46464;BME280;32161;48.148;-1.554;2023-04-27T12:28:14;100694.88;;;15.56;100.00
46464;BME280;32161;48.148;-1.554;2023-04-27T12:30:44;100691.38;;;15.60;100.00
46464;BME280;32161;48.148;-1.554;2023-04-27T12:33:11;100688.69;;;15.66;100.00
46464;BME280;32161;48.148;-1.554;2023-04-27T12:35:39;100690.63;;;15.70;100.00
46464;BME280;32161;48.148;-1.554;2023-04-27T12:38:08;100685.75;;;15.82;100.00
46464;BME280;32161;48.148;-1.554;2023-04-27T12:40:36;100684.91;;;15.77;100.00
46464;BME280;32161;48.148;-1.554;2023-04-27T12:43:04;100683.06;;;15.88;100.00